sensor_id;sensor_type;location;lat;lon;timestamp;P1;durP1;ratioP1;P2;durP2;ratioP2
25419;SDS011;13354;48.174;11.566;2023-07-22T00:02:00;3.65;;;2.22;;
25419;SDS011;13354;48.174;11.566;2023-07-22T00:04:25;4.45;;;2.45;;
25419;SDS011;13354;48.174;11.566;2023-07-22T00:06:52;3.05;;;2.42;;
25419;SDS011;13354;48.174;11.566;2023-07-22T00:09:17;2.95;;;2.42;;
25419;SDS011;13354;48.174;11.566;2023-07-22T00:11:42;4.95;;;2.50;;
25419;SDS011;13354;48.174;11.566;2023-07-22T00:14:08;4.22;;;2.40;;
25419;SDS011;13354;48.174;11.566;2023-07-22T00:16:34;3.92;;;2.33;;
25419;SDS011;13354;48.174;11.566;2023-07-22T00:19:00;9.02;;;2.78;;
25419;SDS011;13354;48.174;11.566;2023-07-22T00:21:25;2.65;;;2.38;;
25419;SDS011;13354;48.174;11.566;2023-07-22T00:23:51;3.55;;;2.13;;
25419;SDS011;13354;48.174;11.566;2023-07-22T00:26:16;4.47;;;2.85;;
25419;SDS011;13354;48.174;11.566;2023-07-22T00:28:41;3.85;;;2.80;;
25419;SDS011;13354;48.174;11.566;2023-07-22T00:31:08;4.07;;;2.38;;
25419;SDS011;13354;48.174;11.566;2023-07-22T00:33:34;5.15;;;2.22;;
25419;SDS011;13354;48.174;11.566;2023-07-22T00:35:59;5.10;;;2.60;;
25419;SDS011;13354;48.174;11.566;2023-07-22T00:38:24;4.72;;;2.97;;
25419;SDS011;13354;48.174;11.566;2023-07-22T00:40:50;3.90;;;2.72;;
25419;SDS011;13354;48.174;11.566;2023-07-22T00:43:15;3.28;;;2.83;;
25419;SDS011;13354;48.174;11.566;2023-07-22T00:45:41;3.72;;;2.70;;
25419;SDS011;13354;48.174;11.566;2023-07-22T00:48:06;6.53;;;2.88;;
25419;SDS011;13354;48.174;11.566;2023-07-22T00:50:33;6.40;;;3.15;;
25419;SDS011;13354;48.174;11.566;2023-07-22T00:53:00;4.55;;;3.15;;
25419;SDS011;13354;48.174;11.566;2023-07-22T00:55:25;7.38;;;3.00;;
25419;SDS011;13354;48.174;11.566;2023-07-22T00:57:51;6.05;;;3.28;;
25419;SDS011;13354;48.174;11.566;2023-07-22T01:00:17;4.50;;;3.33;;
25419;SDS011;13354;48.174;11.566;2023-07-22T01:02:42;5.78;;;3.10;;
25419;SDS011;13354;48.174;11.566;2023-07-22T01:05:09;6.82;;;3.58;;
25419;SDS011;13354;48.174;11.566;2023-07-22T01:07:36;4.85;;;3.17;;
25419;SDS011;13354;48.174;11.566;2023-07-22T01:10:03;6.03;;;3.33;;
25419;SDS011;13354;48.174;11.566;2023-07-22T01:12:30;4.30;;;2.80;;
25419;SDS011;13354;48.174;11.566;2023-07-22T01:14:56;5.28;;;3.00;;
25419;SDS011;13354;48.174;11.566;2023-07-22T01:17:21;5.18;;;2.78;;
25419;SDS011;13354;48.174;11.566;2023-07-22T01:19:47;3.30;;;2.58;;
25419;SDS011;13354;48.174;11.566;2023-07-22T01:22:13;5.65;;;2.70;;
25419;SDS011;13354;48.174;11.566;2023-07-22T01:24:39;4.65;;;2.50;;
25419;SDS011;13354;48.174;11.566;2023-07-22T01:27:07;3.13;;;2.30;;
25419;SDS011;13354;48.174;11.566;2023-07-22T01:29:35;4.05;;;3.03;;
25419;SDS011;13354;48.174;11.566;2023-07-22T01:32:01;3.88;;;2.92;;
25419;SDS011;13354;48.174;11.566;2023-07-22T01:34:26;6.13;;;3.15;;
25419;SDS011;13354;48.174;11.566;2023-07-22T01:36:52;4.97;;;2.90;;
25419;SDS011;13354;48.174;11.566;2023-07-22T01:39:19;6.82;;;2.88;;
25419;SDS011;13354;48.174;11.566;2023-07-22T01:41:44;6.40;;;3.20;;
25419;SDS011;13354;48.174;11.566;2023-07-22T01:44:10;3.40;;;2.97;;
25419;SDS011;13354;48.174;11.566;2023-07-22T01:46:38;7.45;;;3.20;;
25419;SDS011;13354;48.174;11.566;2023-07-22T01:49:05;6.43;;;3.10;;
25419;SDS011;13354;48.174;11.566;2023-07-22T01:51:37;4.30;;;3.37;;
25419;SDS011;13354;48.174;11.566;2023-07-22T01:54:03;6.35;;;3.28;;
25419;SDS011;13354;48.174;11.566;2023-07-22T01:56:29;4.63;;;3.90;;
25419;SDS011;13354;48.174;11.566;2023-07-22T01:58:54;5.05;;;3.40;;
25419;SDS011;13354;48.174;11.566;2023-07-22T02:01:20;5.50;;;3.42;;
25419;SDS011;13354;48.174;11.566;2023-07-22T02:03:45;5.10;;;3.15;;
25419;SDS011;13354;48.174;11.566;2023-07-22T02:06:11;5.80;;;4.65;;
25419;SDS011;13354;48.174;11.566;2023-07-22T02:08:37;5.07;;;3.17;;
25419;SDS011;13354;48.174;11.566;2023-07-22T02:11:03;4.05;;;2.88;;
25419;SDS011;13354;48.174;11.566;2023-07-22T02:13:30;5.68;;;2.95;;
25419;SDS011;13354;48.174;11.566;2023-07-22T02:15:56;4.30;;;3.45;;
25419;SDS011;13354;48.174;11.566;2023-07-22T02:18:22;4.38;;;3.25;;
25419;SDS011;13354;48.174;11.566;2023-07-22T02:20:47;4.70;;;3.33;;
25419;SDS011;13354;48.174;11.566;2023-07-22T02:23:13;4.43;;;3.28;;
25419;SDS011;13354;48.174;11.566;2023-07-22T02:25:38;7.57;;;3.60;;
25419;SDS011;13354;48.174;11.566;2023-07-22T02:28:04;6.57;;;3.30;;
25419;SDS011;13354;48.174;11.566;2023-07-22T02:30:29;5.35;;;3.35;;
25419;SDS011;13354;48.174;11.566;2023-07-22T02:32:55;3.60;;;2.97;;
25419;SDS011;13354;48.174;11.566;2023-07-22T02:35:21;3.72;;;3.00;;
25419;SDS011;13354;48.174;11.566;2023-07-22T02:37:46;5.22;;;3.80;;
25419;SDS011;13354;48.174;11.566;2023-07-22T02:40:11;4.63;;;3.08;;
25419;SDS011;13354;48.174;11.566;2023-07-22T02:42:37;4.72;;;3.63;;
25419;SDS011;13354;48.174;11.566;2023-07-22T02:45:03;4.43;;;3.22;;
25419;SDS011;13354;48.174;11.566;2023-07-22T02:47:38;4.15;;;3.38;;
25419;SDS011;13354;48.174;11.566;2023-07-22T02:50:05;6.22;;;3.38;;
25419;SDS011;13354;48.174;11.566;2023-07-22T02:52:32;4.90;;;3.40;;
25419;SDS011;13354;48.174;11.566;2023-07-22T02:57:37;4.22;;;3.60;;
25419;SDS011;13354;48.174;11.566;2023-07-22T03:00:03;6.32;;;3.75;;
25419;SDS011;13354;48.174;11.566;2023-07-22T03:02:33;6.65;;;3.78;;
25419;SDS011;13354;48.174;11.566;2023-07-22T03:05:01;6.53;;;3.92;;
25419;SDS011;13354;48.174;11.566;2023-07-22T03:07:28;5.00;;;3.80;;
25419;SDS011;13354;48.174;11.566;2023-07-22T03:09:53;5.88;;;3.80;;
25419;SDS011;13354;48.174;11.566;2023-07-22T03:12:18;4.03;;;3.60;;
25419;SDS011;13354;48.174;11.566;2023-07-22T03:14:43;5.93;;;3.85;;
25419;SDS011;13354;48.174;11.566;2023-07-22T03:17:09;5.90;;;3.80;;
25419;SDS011;13354;48.174;11.566;2023-07-22T03:19:34;7.90;;;3.80;;
25419;SDS011;13354;48.174;11.566;2023-07-22T03:22:00;6.82;;;3.85;;
25419;SDS011;13354;48.174;11.566;2023-07-22T03:24:26;5.00;;;3.90;;
25419;SDS011;13354;48.174;11.566;2023-07-22T03:26:51;4.85;;;3.83;;
25419;SDS011;13354;48.174;11.566;2023-07-22T03:29:16;7.63;;;4.03;;
25419;SDS011;13354;48.174;11.566;2023-07-22T03:31:42;8.48;;;4.03;;
25419;SDS011;13354;48.174;11.566;2023-07-22T03:34:07;5.90;;;4.10;;
25419;SDS011;13354;48.174;11.566;2023-07-22T03:36:32;5.45;;;4.00;;
25419;SDS011;13354;48.174;11.566;2023-07-22T03:39:00;6.57;;;3.60;;
25419;SDS011;13354;48.174;11.566;2023-07-22T03:41:26;4.65;;;3.47;;
25419;SDS011;13354;48.174;11.566;2023-07-22T03:43:52;6.50;;;4.00;;
25419;SDS011;13354;48.174;11.566;2023-07-22T03:46:17;4.97;;;3.85;;
25419;SDS011;13354;48.174;11.566;2023-07-22T03:48:42;4.28;;;3.80;;
25419;SDS011;13354;48.174;11.566;2023-07-22T03:51:07;5.63;;;4.20;;
25419;SDS011;13354;48.174;11.566;2023-07-22T03:53:33;5.07;;;3.90;;
25419;SDS011;13354;48.174;11.566;2023-07-22T03:55:58;4.20;;;3.80;;
25419;SDS011;13354;48.174;11.566;2023-07-22T03:58:23;4.75;;;3.78;;
25419;SDS011;13354;48.174;11.566;2023-07-22T04:00:49;6.60;;;4.40;;
25419;SDS011;13354;48.174;11.566;2023-07-22T04:03:15;5.85;;;4.28;;
25419;SDS011;13354;48.174;11.566;2023-07-22T04:05:40;4.72;;;3.70;;
25419;SDS011;13354;48.174;11.566;2023-07-22T04:08:05;5.40;;;4.03;;
25419;SDS011;13354;48.174;11.566;2023-07-22T04:10:31;4.90;;;4.07;;
25419;SDS011;13354;48.174;11.566;2023-07-22T04:12:56;4.63;;;4.15;;
25419;SDS011;13354;48.174;11.566;2023-07-22T04:15:22;6.78;;;4.05;;
25419;SDS011;13354;48.174;11.566;2023-07-22T04:17:47;4.93;;;4.28;;
25419;SDS011;13354;48.174;11.566;2023-07-22T04:20:12;6.60;;;4.20;;
25419;SDS011;13354;48.174;11.566;2023-07-22T04:22:38;5.53;;;4.25;;
25419;SDS011;13354;48.174;11.566;2023-07-22T04:25:03;5.45;;;4.13;;
25419;SDS011;13354;48.174;11.566;2023-07-22T04:27:29;7.28;;;4.57;;
25419;SDS011;13354;48.174;11.566;2023-07-22T04:29:54;5.88;;;4.15;;
25419;SDS011;13354;48.174;11.566;2023-07-22T04:32:20;7.38;;;4.43;;
25419;SDS011;13354;48.174;11.566;2023-07-22T04:34:45;6.85;;;4.60;;
25419;SDS011;13354;48.174;11.566;2023-07-22T04:37:11;7.93;;;4.07;;
25419;SDS011;13354;48.174;11.566;2023-07-22T04:39:36;5.25;;;4.00;;
25419;SDS011;13354;48.174;11.566;2023-07-22T04:42:02;4.90;;;3.80;;
25419;SDS011;13354;48.174;11.566;2023-07-22T04:44:27;6.50;;;3.90;;
25419;SDS011;13354;48.174;11.566;2023-07-22T04:46:53;6.38;;;3.78;;
25419;SDS011;13354;48.174;11.566;2023-07-22T04:49:18;4.53;;;3.97;;
25419;SDS011;13354;48.174;11.566;2023-07-22T04:51:46;8.55;;;3.95;;
25419;SDS011;13354;48.174;11.566;2023-07-22T04:54:12;6.50;;;3.67;;
25419;SDS011;13354;48.174;11.566;2023-07-22T04:56:38;5.70;;;3.75;;
25419;SDS011;13354;48.174;11.566;2023-07-22T04:59:03;7.40;;;3.50;;
25419;SDS011;13354;48.174;11.566;2023-07-22T05:01:29;6.63;;;3.33;;
25419;SDS011;13354;48.174;11.566;2023-07-22T05:03:54;6.20;;;3.97;;
25419;SDS011;13354;48.174;11.566;2023-07-22T05:06:20;3.55;;;3.20;;
25419;SDS011;13354;48.174;11.566;2023-07-22T05:08:45;4.70;;;3.33;;
25419;SDS011;13354;48.174;11.566;2023-07-22T05:11:11;4.17;;;3.50;;
25419;SDS011;13354;48.174;11.566;2023-07-22T05:13:36;4.70;;;3.30;;
25419;SDS011;13354;48.174;11.566;2023-07-22T05:16:01;5.73;;;3.73;;
25419;SDS011;13354;48.174;11.566;2023-07-22T05:18:27;6.75;;;3.50;;
25419;SDS011;13354;48.174;11.566;2023-07-22T05:20:52;4.80;;;3.38;;
25419;SDS011;13354;48.174;11.566;2023-07-22T05:23:17;4.60;;;3.50;;
25419;SDS011;13354;48.174;11.566;2023-07-22T05:25:43;3.45;;;2.97;;
25419;SDS011;13354;48.174;11.566;2023-07-22T05:28:08;6.07;;;3.33;;
25419;SDS011;13354;48.174;11.566;2023-07-22T05:30:33;4.10;;;2.80;;
25419;SDS011;13354;48.174;11.566;2023-07-22T05:32:58;3.30;;;2.83;;
25419;SDS011;13354;48.174;11.566;2023-07-22T05:35:24;4.53;;;2.90;;
25419;SDS011;13354;48.174;11.566;2023-07-22T05:37:49;4.40;;;2.80;;
25419;SDS011;13354;48.174;11.566;2023-07-22T05:40:15;4.85;;;3.35;;
25419;SDS011;13354;48.174;11.566;2023-07-22T05:42:40;4.75;;;3.08;;
25419;SDS011;13354;48.174;11.566;2023-07-22T05:45:06;5.45;;;3.05;;
25419;SDS011;13354;48.174;11.566;2023-07-22T05:47:32;5.10;;;3.33;;
25419;SDS011;13354;48.174;11.566;2023-07-22T05:49:57;4.30;;;2.88;;
25419;SDS011;13354;48.174;11.566;2023-07-22T05:52:23;4.75;;;3.40;;
25419;SDS011;13354;48.174;11.566;2023-07-22T05:54:48;5.25;;;2.88;;
25419;SDS011;13354;48.174;11.566;2023-07-22T05:57:14;4.35;;;2.88;;
25419;SDS011;13354;48.174;11.566;2023-07-22T05:59:40;6.80;;;3.22;;
25419;SDS011;13354;48.174;11.566;2023-07-22T06:02:06;4.03;;;2.72;;
25419;SDS011;13354;48.174;11.566;2023-07-22T06:04:32;5.85;;;2.85;;
25419;SDS011;13354;48.174;11.566;2023-07-22T06:06:58;4.97;;;2.38;;
25419;SDS011;13354;48.174;11.566;2023-07-22T06:09:23;3.78;;;2.35;;
25419;SDS011;13354;48.174;11.566;2023-07-22T06:11:49;4.53;;;2.80;;
25419;SDS011;13354;48.174;11.566;2023-07-22T06:14:14;4.23;;;2.70;;
25419;SDS011;13354;48.174;11.566;2023-07-22T06:16:39;3.78;;;2.38;;
25419;SDS011;13354;48.174;11.566;2023-07-22T06:19:04;4.60;;;2.38;;
25419;SDS011;13354;48.174;11.566;2023-07-22T06:21:30;6.47;;;2.50;;
25419;SDS011;13354;48.174;11.566;2023-07-22T06:23:55;3.92;;;2.58;;
25419;SDS011;13354;48.174;11.566;2023-07-22T06:26:21;5.57;;;2.45;;
25419;SDS011;13354;48.174;11.566;2023-07-22T06:28:46;3.78;;;2.35;;
25419;SDS011;13354;48.174;11.566;2023-07-22T06:31:12;4.10;;;2.40;;
25419;SDS011;13354;48.174;11.566;2023-07-22T06:33:37;5.35;;;2.53;;
25419;SDS011;13354;48.174;11.566;2023-07-22T06:36:03;3.42;;;2.30;;
25419;SDS011;13354;48.174;11.566;2023-07-22T06:38:28;4.43;;;2.60;;
25419;SDS011;13354;48.174;11.566;2023-07-22T06:40:54;5.25;;;2.42;;
25419;SDS011;13354;48.174;11.566;2023-07-22T06:43:19;4.68;;;2.17;;
25419;SDS011;13354;48.174;11.566;2023-07-22T06:45:44;4.65;;;2.47;;
25419;SDS011;13354;48.174;11.566;2023-07-22T06:48:10;6.18;;;2.30;;
25419;SDS011;13354;48.174;11.566;2023-07-22T06:50:35;4.53;;;2.58;;
25419;SDS011;13354;48.174;11.566;2023-07-22T06:53:00;4.53;;;2.30;;
25419;SDS011;13354;48.174;11.566;2023-07-22T06:55:26;4.07;;;2.22;;
25419;SDS011;13354;48.174;11.566;2023-07-22T06:57:51;5.85;;;2.30;;
25419;SDS011;13354;48.174;11.566;2023-07-22T07:00:16;3.80;;;2.10;;
25419;SDS011;13354;48.174;11.566;2023-07-22T07:02:41;3.75;;;2.30;;
25419;SDS011;13354;48.174;11.566;2023-07-22T07:05:07;3.25;;;2.30;;
25419;SDS011;13354;48.174;11.566;2023-07-22T07:07:32;3.05;;;1.80;;
25419;SDS011;13354;48.174;11.566;2023-07-22T07:09:58;2.83;;;1.98;;
25419;SDS011;13354;48.174;11.566;2023-07-22T07:12:23;5.82;;;2.00;;
25419;SDS011;13354;48.174;11.566;2023-07-22T07:14:52;3.50;;;1.90;;
25419;SDS011;13354;48.174;11.566;2023-07-22T07:17:18;3.55;;;2.20;;
25419;SDS011;13354;48.174;11.566;2023-07-22T07:19:43;5.40;;;1.98;;
25419;SDS011;13354;48.174;11.566;2023-07-22T07:22:09;3.50;;;1.97;;
25419;SDS011;13354;48.174;11.566;2023-07-22T07:24:34;4.32;;;2.05;;
25419;SDS011;13354;48.174;11.566;2023-07-22T07:26:59;2.70;;;1.70;;
25419;SDS011;13354;48.174;11.566;2023-07-22T07:29:24;2.55;;;1.80;;
25419;SDS011;13354;48.174;11.566;2023-07-22T07:31:50;2.50;;;1.92;;
25419;SDS011;13354;48.174;11.566;2023-07-22T07:34:15;2.73;;;1.70;;
25419;SDS011;13354;48.174;11.566;2023-07-22T07:36:40;2.30;;;1.80;;
25419;SDS011;13354;48.174;11.566;2023-07-22T07:39:06;2.42;;;1.60;;
25419;SDS011;13354;48.174;11.566;2023-07-22T07:41:32;4.72;;;1.60;;
25419;SDS011;13354;48.174;11.566;2023-07-22T07:43:58;2.75;;;1.98;;
25419;SDS011;13354;48.174;11.566;2023-07-22T07:46:24;3.28;;;1.95;;
25419;SDS011;13354;48.174;11.566;2023-07-22T07:48:52;2.58;;;1.90;;
25419;SDS011;13354;48.174;11.566;2023-07-22T07:51:19;4.82;;;1.80;;
25419;SDS011;13354;48.174;11.566;2023-07-22T07:53:46;2.55;;;1.80;;
25419;SDS011;13354;48.174;11.566;2023-07-22T07:56:12;2.83;;;1.73;;
25419;SDS011;13354;48.174;11.566;2023-07-22T07:58:38;4.30;;;1.52;;
25419;SDS011;13354;48.174;11.566;2023-07-22T08:01:04;2.58;;;1.80;;
25419;SDS011;13354;48.174;11.566;2023-07-22T08:03:29;2.80;;;1.65;;
25419;SDS011;13354;48.174;11.566;2023-07-22T08:05:55;3.38;;;1.63;;
25419;SDS011;13354;48.174;11.566;2023-07-22T08:08:21;3.38;;;1.88;;
25419;SDS011;13354;48.174;11.566;2023-07-22T08:10:46;2.90;;;1.90;;
25419;SDS011;13354;48.174;11.566;2023-07-22T08:13:13;4.65;;;2.00;;
25419;SDS011;13354;48.174;11.566;2023-07-22T08:15:38;3.70;;;1.98;;
25419;SDS011;13354;48.174;11.566;2023-07-22T08:18:03;3.00;;;1.80;;
25419;SDS011;13354;48.174;11.566;2023-07-22T08:20:29;2.33;;;1.93;;
25419;SDS011;13354;48.174;11.566;2023-07-22T08:22:55;2.85;;;1.90;;
25419;SDS011;13354;48.174;11.566;2023-07-22T08:25:20;4.70;;;1.83;;
25419;SDS011;13354;48.174;11.566;2023-07-22T08:27:46;2.88;;;1.70;;
25419;SDS011;13354;48.174;11.566;2023-07-22T08:30:11;3.00;;;1.58;;
25419;SDS011;13354;48.174;11.566;2023-07-22T08:32:36;2.67;;;1.77;;
25419;SDS011;13354;48.174;11.566;2023-07-22T08:35:02;3.30;;;1.73;;
25419;SDS011;13354;48.174;11.566;2023-07-22T08:37:28;2.20;;;1.50;;
25419;SDS011;13354;48.174;11.566;2023-07-22T08:39:53;3.25;;;1.60;;
25419;SDS011;13354;48.174;11.566;2023-07-22T08:42:18;2.23;;;1.90;;
25419;SDS011;13354;48.174;11.566;2023-07-22T08:44:47;2.10;;;1.75;;
25419;SDS011;13354;48.174;11.566;2023-07-22T08:47:14;3.20;;;1.52;;
25419;SDS011;13354;48.174;11.566;2023-07-22T08:49:42;2.83;;;1.83;;
25419;SDS011;13354;48.174;11.566;2023-07-22T08:52:15;2.20;;;1.48;;
25419;SDS011;13354;48.174;11.566;2023-07-22T08:54:42;2.70;;;1.50;;
25419;SDS011;13354;48.174;11.566;2023-07-22T08:57:08;1.67;;;1.55;;
25419;SDS011;13354;48.174;11.566;2023-07-22T08:59:35;2.15;;;1.40;;
25419;SDS011;13354;48.174;11.566;2023-07-22T09:02:01;3.25;;;1.30;;
25419;SDS011;13354;48.174;11.566;2023-07-22T09:04:27;2.85;;;1.67;;
25419;SDS011;13354;48.174;11.566;2023-07-22T09:06:53;3.13;;;1.50;;
25419;SDS011;13354;48.174;11.566;2023-07-22T09:09:21;2.28;;;1.63;;
25419;SDS011;13354;48.174;11.566;2023-07-22T09:11:48;3.03;;;1.40;;
25419;SDS011;13354;48.174;11.566;2023-07-22T09:14:15;1.73;;;1.30;;
25419;SDS011;13354;48.174;11.566;2023-07-22T09:16:43;1.50;;;1.25;;
25419;SDS011;13354;48.174;11.566;2023-07-22T09:19:08;2.65;;;1.48;;
25419;SDS011;13354;48.174;11.566;2023-07-22T09:21:34;3.17;;;1.60;;
25419;SDS011;13354;48.174;11.566;2023-07-22T09:24:00;2.13;;;1.40;;
25419;SDS011;13354;48.174;11.566;2023-07-22T09:26:26;1.10;;;1.00;;
25419;SDS011;13354;48.174;11.566;2023-07-22T09:28:52;2.70;;;1.30;;
25419;SDS011;13354;48.174;11.566;2023-07-22T09:31:22;1.60;;;1.23;;
25419;SDS011;13354;48.174;11.566;2023-07-22T09:33:53;2.60;;;1.35;;
25419;SDS011;13354;48.174;11.566;2023-07-22T09:36:19;1.50;;;1.20;;
25419;SDS011;13354;48.174;11.566;2023-07-22T09:38:45;1.83;;;1.33;;
25419;SDS011;13354;48.174;11.566;2023-07-22T09:41:24;3.03;;;1.85;;
25419;SDS011;13354;48.174;11.566;2023-07-22T09:43:52;2.25;;;1.60;;
25419;SDS011;13354;48.174;11.566;2023-07-22T09:46:17;2.10;;;1.37;;
25419;SDS011;13354;48.174;11.566;2023-07-22T09:48:43;1.92;;;1.40;;
25419;SDS011;13354;48.174;11.566;2023-07-22T09:51:15;2.80;;;1.52;;
25419;SDS011;13354;48.174;11.566;2023-07-22T09:53:44;2.80;;;1.30;;
25419;SDS011;13354;48.174;11.566;2023-07-22T09:56:11;1.63;;;1.15;;
25419;SDS011;13354;48.174;11.566;2023-07-22T09:58:36;3.05;;;1.50;;
25419;SDS011;13354;48.174;11.566;2023-07-22T10:01:03;1.92;;;1.33;;
25419;SDS011;13354;48.174;11.566;2023-07-22T10:03:30;1.75;;;1.05;;
25419;SDS011;13354;48.174;11.566;2023-07-22T10:05:56;3.40;;;1.17;;
25419;SDS011;13354;48.174;11.566;2023-07-22T10:08:25;1.85;;;1.33;;
25419;SDS011;13354;48.174;11.566;2023-07-22T10:10:53;1.73;;;1.38;;
25419;SDS011;13354;48.174;11.566;2023-07-22T10:13:21;2.78;;;1.13;;
25419;SDS011;13354;48.174;11.566;2023-07-22T10:15:47;1.63;;;1.30;;
25419;SDS011;13354;48.174;11.566;2023-07-22T10:18:12;2.88;;;1.15;;
25419;SDS011;13354;48.174;11.566;2023-07-22T10:20:38;2.70;;;1.30;;
25419;SDS011;13354;48.174;11.566;2023-07-22T10:23:04;6.45;;;1.42;;
25419;SDS011;13354;48.174;11.566;2023-07-22T10:25:32;1.58;;;1.08;;
25419;SDS011;13354;48.174;11.566;2023-07-22T10:27:58;1.50;;;1.27;;
25419;SDS011;13354;48.174;11.566;2023-07-22T10:30:23;3.17;;;1.50;;
25419;SDS011;13354;48.174;11.566;2023-07-22T10:32:50;2.05;;;1.23;;
25419;SDS011;13354;48.174;11.566;2023-07-22T10:35:24;2.85;;;1.50;;
25419;SDS011;13354;48.174;11.566;2023-07-22T10:38:11;2.17;;;1.33;;
25419;SDS011;13354;48.174;11.566;2023-07-22T10:40:49;2.05;;;1.10;;
25419;SDS011;13354;48.174;11.566;2023-07-22T10:43:23;3.30;;;1.30;;
25419;SDS011;13354;48.174;11.566;2023-07-22T10:45:51;1.88;;;1.50;;
25419;SDS011;13354;48.174;11.566;2023-07-22T10:48:22;1.63;;;1.35;;
25419;SDS011;13354;48.174;11.566;2023-07-22T10:50:51;2.20;;;1.40;;
25419;SDS011;13354;48.174;11.566;2023-07-22T10:56:05;3.00;;;1.40;;
25419;SDS011;13354;48.174;11.566;2023-07-22T11:06:38;2.35;;;1.45;;
25419;SDS011;13354;48.174;11.566;2023-07-22T11:12:00;3.35;;;1.45;;
25419;SDS011;13354;48.174;11.566;2023-07-22T11:14:45;1.45;;;1.33;;
25419;SDS011;13354;48.174;11.566;2023-07-22T11:17:14;1.80;;;1.40;;
25419;SDS011;13354;48.174;11.566;2023-07-22T11:19:40;2.75;;;1.02;;
25419;SDS011;13354;48.174;11.566;2023-07-22T11:22:06;1.90;;;1.42;;
25419;SDS011;13354;48.174;11.566;2023-07-22T11:24:32;3.75;;;1.50;;
25419;SDS011;13354;48.174;11.566;2023-07-22T11:27:02;2.65;;;1.60;;
25419;SDS011;13354;48.174;11.566;2023-07-22T11:29:30;2.30;;;1.60;;
25419;SDS011;13354;48.174;11.566;2023-07-22T11:31:55;3.28;;;2.28;;
25419;SDS011;13354;48.174;11.566;2023-07-22T11:34:22;3.75;;;1.40;;
25419;SDS011;13354;48.174;11.566;2023-07-22T11:36:49;2.60;;;1.80;;
25419;SDS011;13354;48.174;11.566;2023-07-22T11:39:19;1.92;;;1.55;;
25419;SDS011;13354;48.174;11.566;2023-07-22T11:41:46;2.42;;;1.35;;
25419;SDS011;13354;48.174;11.566;2023-07-22T11:44:13;1.92;;;1.40;;
25419;SDS011;13354;48.174;11.566;2023-07-22T11:46:54;2.75;;;1.40;;
25419;SDS011;13354;48.174;11.566;2023-07-22T11:49:30;2.40;;;1.27;;
25419;SDS011;13354;48.174;11.566;2023-07-22T11:51:59;1.42;;;1.20;;
25419;SDS011;13354;48.174;11.566;2023-07-22T11:54:26;2.55;;;1.40;;
25419;SDS011;13354;48.174;11.566;2023-07-22T11:56:53;2.08;;;1.40;;
25419;SDS011;13354;48.174;11.566;2023-07-22T11:59:32;2.28;;;1.33;;
25419;SDS011;13354;48.174;11.566;2023-07-22T12:01:59;3.47;;;1.30;;
25419;SDS011;13354;48.174;11.566;2023-07-22T12:04:25;1.90;;;1.40;;
25419;SDS011;13354;48.174;11.566;2023-07-22T12:06:51;1.63;;;1.30;;
25419;SDS011;13354;48.174;11.566;2023-07-22T12:09:16;2.30;;;1.50;;
25419;SDS011;13354;48.174;11.566;2023-07-22T12:11:41;2.10;;;1.20;;
25419;SDS011;13354;48.174;11.566;2023-07-22T12:16:34;3.10;;;1.27;;
25419;SDS011;13354;48.174;11.566;2023-07-22T12:19:01;1.30;;;1.00;;
25419;SDS011;13354;48.174;11.566;2023-07-22T12:21:27;1.77;;;1.45;;
25419;SDS011;13354;48.174;11.566;2023-07-22T12:23:53;3.22;;;1.27;;
25419;SDS011;13354;48.174;11.566;2023-07-22T12:26:18;2.53;;;1.35;;
25419;SDS011;13354;48.174;11.566;2023-07-22T12:28:44;2.08;;;1.50;;
25419;SDS011;13354;48.174;11.566;2023-07-22T12:31:09;2.17;;;1.70;;
25419;SDS011;13354;48.174;11.566;2023-07-22T12:33:34;1.70;;;1.47;;
25419;SDS011;13354;48.174;11.566;2023-07-22T12:36:00;3.28;;;1.70;;
25419;SDS011;13354;48.174;11.566;2023-07-22T12:38:25;2.70;;;1.40;;
25419;SDS011;13354;48.174;11.566;2023-07-22T12:40:50;2.15;;;1.30;;
25419;SDS011;13354;48.174;11.566;2023-07-22T12:43:16;2.55;;;1.50;;
25419;SDS011;13354;48.174;11.566;2023-07-22T12:45:41;3.87;;;1.70;;
25419;SDS011;13354;48.174;11.566;2023-07-22T12:48:06;1.60;;;1.50;;
25419;SDS011;13354;48.174;11.566;2023-07-22T12:50:32;3.45;;;1.55;;
25419;SDS011;13354;48.174;11.566;2023-07-22T12:52:58;1.88;;;1.40;;
25419;SDS011;13354;48.174;11.566;2023-07-22T12:55:24;1.55;;;1.20;;
25419;SDS011;13354;48.174;11.566;2023-07-22T12:57:49;1.67;;;1.38;;
25419;SDS011;13354;48.174;11.566;2023-07-22T13:00:14;3.80;;;1.65;;
25419;SDS011;13354;48.174;11.566;2023-07-22T13:02:40;2.10;;;1.40;;
25419;SDS011;13354;48.174;11.566;2023-07-22T13:05:05;1.70;;;1.50;;
25419;SDS011;13354;48.174;11.566;2023-07-22T13:07:31;1.40;;;1.30;;
25419;SDS011;13354;48.174;11.566;2023-07-22T13:09:57;2.00;;;1.40;;
25419;SDS011;13354;48.174;11.566;2023-07-22T13:12:24;1.77;;;1.52;;
25419;SDS011;13354;48.174;11.566;2023-07-22T13:14:49;2.15;;;1.67;;
25419;SDS011;13354;48.174;11.566;2023-07-22T13:17:14;1.50;;;1.40;;
25419;SDS011;13354;48.174;11.566;2023-07-22T13:19:40;1.70;;;1.40;;
25419;SDS011;13354;48.174;11.566;2023-07-22T13:22:05;5.20;;;1.58;;
25419;SDS011;13354;48.174;11.566;2023-07-22T13:24:30;4.22;;;1.50;;
25419;SDS011;13354;48.174;11.566;2023-07-22T13:26:56;3.67;;;1.60;;
25419;SDS011;13354;48.174;11.566;2023-07-22T13:29:21;1.70;;;1.43;;
25419;SDS011;13354;48.174;11.566;2023-07-22T13:31:46;2.40;;;1.60;;
25419;SDS011;13354;48.174;11.566;2023-07-22T13:34:12;1.58;;;1.38;;
25419;SDS011;13354;48.174;11.566;2023-07-22T13:36:37;1.83;;;1.50;;
25419;SDS011;13354;48.174;11.566;2023-07-22T13:39:02;1.75;;;1.65;;
25419;SDS011;13354;48.174;11.566;2023-07-22T13:41:27;3.65;;;1.60;;
25419;SDS011;13354;48.174;11.566;2023-07-22T13:43:53;2.30;;;1.30;;
25419;SDS011;13354;48.174;11.566;2023-07-22T13:46:19;2.55;;;1.58;;
25419;SDS011;13354;48.174;11.566;2023-07-22T13:48:44;1.70;;;1.60;;
25419;SDS011;13354;48.174;11.566;2023-07-22T13:51:09;2.10;;;1.50;;
25419;SDS011;13354;48.174;11.566;2023-07-22T13:53:35;1.98;;;1.50;;
25419;SDS011;13354;48.174;11.566;2023-07-22T13:56:00;1.73;;;1.50;;
25419;SDS011;13354;48.174;11.566;2023-07-22T13:58:25;4.10;;;1.73;;
25419;SDS011;13354;48.174;11.566;2023-07-22T14:00:51;2.13;;;1.67;;
25419;SDS011;13354;48.174;11.566;2023-07-22T14:03:16;2.33;;;1.45;;
25419;SDS011;13354;48.174;11.566;2023-07-22T14:05:41;2.23;;;1.53;;
25419;SDS011;13354;48.174;11.566;2023-07-22T14:08:07;2.17;;;1.70;;
25419;SDS011;13354;48.174;11.566;2023-07-22T14:10:32;2.47;;;1.40;;
25419;SDS011;13354;48.174;11.566;2023-07-22T14:12:57;4.30;;;1.60;;
25419;SDS011;13354;48.174;11.566;2023-07-22T14:15:23;2.50;;;1.70;;
25419;SDS011;13354;48.174;11.566;2023-07-22T14:17:48;3.75;;;1.60;;
25419;SDS011;13354;48.174;11.566;2023-07-22T14:20:13;2.17;;;1.60;;
25419;SDS011;13354;48.174;11.566;2023-07-22T14:22:39;1.90;;;1.60;;
25419;SDS011;13354;48.174;11.566;2023-07-22T14:25:07;5.07;;;2.10;;
25419;SDS011;13354;48.174;11.566;2023-07-22T14:27:33;4.15;;;1.63;;
25419;SDS011;13354;48.174;11.566;2023-07-22T14:29:59;1.88;;;1.67;;
25419;SDS011;13354;48.174;11.566;2023-07-22T14:32:25;5.65;;;2.25;;
25419;SDS011;13354;48.174;11.566;2023-07-22T14:34:50;2.72;;;1.80;;
25419;SDS011;13354;48.174;11.566;2023-07-22T14:37:16;2.15;;;1.50;;
25419;SDS011;13354;48.174;11.566;2023-07-22T14:39:42;2.85;;;1.60;;
25419;SDS011;13354;48.174;11.566;2023-07-22T14:42:07;2.38;;;1.80;;
25419;SDS011;13354;48.174;11.566;2023-07-22T14:44:32;3.58;;;2.08;;
25419;SDS011;13354;48.174;11.566;2023-07-22T14:46:58;2.30;;;1.58;;